createdAt,value
2019-03-09T00:00:37.499Z,100349.00
2019-03-09T00:01:10.711Z,100347.70
2019-03-09T00:01:43.796Z,100343.31
2019-03-09T00:02:15.060Z,100344.13
2019-03-09T00:02:46.224Z,100346.25
2019-03-09T00:03:17.433Z,100346.25
2019-03-09T00:03:48.647Z,100344.47
2019-03-09T00:04:20.160Z,100344.47
2019-03-09T00:04:51.338Z,100314.33
2019-03-09T00:05:22.546Z,100347.03
2019-03-09T00:05:53.708Z,100343.95
2019-03-09T00:06:24.939Z,100346.55
2019-03-09T00:06:56.091Z,100342.64
2019-03-09T00:07:27.292Z,100342.64
2019-03-09T00:07:58.457Z,100343.95
2019-03-09T00:08:29.660Z,100337.85
2019-03-09T00:09:00.808Z,100337.85
2019-03-09T00:09:32.371Z,100338.67
2019-03-09T00:10:07.635Z,100321.84
2019-03-09T00:10:38.916Z,100343.02
2019-03-09T00:11:10.481Z,100343.02
2019-03-09T00:11:41.683Z,100340.34
2019-03-09T00:12:12.843Z,100333.43
2019-03-09T00:12:44.052Z,100343.88
2019-03-09T00:13:15.208Z,100333.43
2019-03-09T00:13:46.423Z,100343.42
2019-03-09T00:14:17.570Z,100342.13
2019-03-09T00:14:48.803Z,100342.13
2019-03-09T00:15:19.957Z,100332.13
2019-03-09T00:15:51.208Z,100332.13
2019-03-09T00:16:22.361Z,100332.54
2019-03-09T00:16:53.755Z,100332.54
2019-03-09T00:17:24.905Z,100330.76
2019-03-09T00:17:56.231Z,100337.26
2019-03-09T00:18:27.399Z,100329.45
2019-03-09T00:18:58.628Z,100315.63
2019-03-09T00:19:29.790Z,100329.87
2019-03-09T00:20:01.004Z,100329.87
2019-03-09T00:20:32.204Z,100319.94
2019-03-09T00:21:03.407Z,100327.97
2019-03-09T00:21:34.583Z,100312.59
2019-03-09T00:22:05.781Z,100312.59
2019-03-09T00:22:36.963Z,100335.95
2019-03-09T00:23:16.777Z,100332.83
2019-03-09T00:23:49.916Z,100337.26
2019-03-09T00:24:39.357Z,100311.77
2019-03-09T00:25:12.617Z,100331.24
2019-03-09T00:25:48.651Z,100331.24
2019-03-09T00:26:27.675Z,100337.73
2019-03-09T00:27:00.782Z,100340.34
2019-03-09T00:27:34.214Z,100338.15
2019-03-09T00:28:13.071Z,100338.15
2019-03-09T00:29:02.324Z,100336.77
2019-03-09T00:29:38.418Z,100336.44
2019-03-09T00:30:14.336Z,100336.44
2019-03-09T00:30:47.456Z,100339.05
2019-03-09T00:31:20.509Z,100336.77
2019-03-09T00:31:54.600Z,100336.77
2019-03-09T00:32:25.824Z,100337.22
2019-03-09T00:32:57.050Z,100327.18
2019-03-09T00:33:28.232Z,100327.18
2019-03-09T00:33:59.490Z,100339.26
2019-03-09T00:34:30.728Z,100339.26
2019-03-09T00:35:02.235Z,100333.53
2019-03-09T00:35:33.484Z,100340.85
2019-03-09T00:36:04.942Z,100340.85
2019-03-09T00:36:36.178Z,100335.73
2019-03-09T00:37:07.415Z,100333.39
2019-03-09T00:37:38.643Z,100321.80
2019-03-09T00:38:09.880Z,100333.34
2019-03-09T00:38:41.095Z,100333.34
2019-03-09T00:39:12.270Z,100336.43
2019-03-09T00:39:43.471Z,100336.43
2019-03-09T00:40:14.621Z,100339.84
2019-03-09T00:40:45.847Z,100339.84
2019-03-09T00:41:16.999Z,100327.66
2019-03-09T00:41:48.403Z,100327.66
2019-03-09T00:42:19.564Z,100332.37
2019-03-09T00:42:50.828Z,100332.37
2019-03-09T00:43:22.078Z,100332.34
2019-03-09T00:43:53.296Z,100318.67
2019-03-09T00:44:24.528Z,100333.20
2019-03-09T00:44:55.782Z,100334.05
2019-03-09T00:45:27.031Z,100334.05
2019-03-09T00:45:58.263Z,100332.75
2019-03-09T00:46:29.492Z,100311.98
2019-03-09T00:47:00.741Z,100331.86
2019-03-09T00:47:32.017Z,100327.47
2019-03-09T00:48:03.276Z,100336.16
2019-03-09T00:48:34.887Z,100333.97
2019-03-09T00:49:06.099Z,100333.97
2019-03-09T00:49:37.283Z,100333.90
2019-03-09T00:50:09.384Z,100331.38
2019-03-09T00:50:40.572Z,100314.98
2019-03-09T00:51:11.753Z,100314.98
2019-03-09T00:51:42.937Z,100331.38
2019-03-09T00:52:14.115Z,100326.76
2019-03-09T00:52:45.310Z,100326.27
2019-03-09T00:53:16.487Z,100326.27
2019-03-09T00:53:47.669Z,100337.39
2019-03-09T00:54:19.046Z,100334.38
2019-03-09T00:54:50.229Z,100333.04
2019-03-09T00:55:22.638Z,100334.38
2019-03-09T00:55:53.857Z,100334.38
2019-03-09T00:56:25.114Z,100330.48
2019-03-09T00:56:56.350Z,100330.48
2019-03-09T00:57:27.582Z,100315.80
2019-03-09T00:57:59.822Z,100325.69
2019-03-09T00:58:31.024Z,100314.05
2019-03-09T00:59:02.202Z,100328.25
2019-03-09T00:59:33.420Z,100328.25
2019-03-09T01:00:12.920Z,100312.80
2019-03-09T01:00:44.128Z,100318.27
2019-03-09T01:01:15.398Z,100318.27
2019-03-09T01:01:46.620Z,100305.29
2019-03-09T01:02:17.809Z,100327.28
2019-03-09T01:02:51.033Z,100327.28
2019-03-09T01:03:22.126Z,100324.69
2019-03-09T01:03:53.358Z,100327.28
2019-03-09T01:04:24.528Z,100325.98
2019-03-09T01:04:55.753Z,100329.88
2019-03-09T01:05:26.935Z,100328.58
2019-03-09T01:05:59.189Z,100328.58
2019-03-09T01:06:30.343Z,100327.65
2019-03-09T01:07:01.828Z,100327.65
2019-03-09T01:07:32.999Z,100309.48
2019-03-09T01:08:04.196Z,100309.48
2019-03-09T01:08:35.403Z,100323.27
2019-03-09T01:09:07.222Z,100323.27
2019-03-09T01:09:38.650Z,100323.19
2019-03-09T01:10:14.745Z,100309.81
2019-03-09T01:10:45.989Z,100323.15
2019-03-09T01:11:17.220Z,100323.15
2019-03-09T01:11:48.471Z,100305.02
2019-03-09T01:12:19.729Z,100304.20
2019-03-09T01:12:50.967Z,100304.20
2019-03-09T01:13:22.201Z,100322.30
2019-03-09T01:13:53.439Z,100322.30
2019-03-09T01:14:24.603Z,100323.59
2019-03-09T01:14:55.820Z,100323.15
2019-03-09T01:15:26.967Z,100323.15
2019-03-09T01:15:58.182Z,100319.25
2019-03-09T01:16:29.327Z,100319.25
2019-03-09T01:17:00.665Z,100319.66
2019-03-09T01:17:31.950Z,100317.95
2019-03-09T01:18:03.290Z,100316.66
2019-03-09T01:18:34.446Z,100318.36
2019-03-09T01:19:05.764Z,100318.36
2019-03-09T01:19:36.936Z,100304.09
2019-03-09T01:20:11.630Z,100313.16
2019-03-09T01:20:42.797Z,100313.16
2019-03-09T01:21:13.997Z,100306.59
2019-03-09T01:21:45.155Z,100314.05
2019-03-09T01:22:16.356Z,100314.05
2019-03-09T01:22:47.509Z,100307.00
2019-03-09T01:23:18.730Z,100307.37
2019-03-09T01:23:50.898Z,100310.16
2019-03-09T01:24:22.177Z,100313.57
2019-03-09T01:24:53.409Z,100313.57
2019-03-09T01:25:25.630Z,100304.98
2019-03-09T01:25:56.868Z,100313.45
2019-03-09T01:26:28.093Z,100313.45
2019-03-09T01:26:59.326Z,100292.20
2019-03-09T01:27:30.600Z,100311.71
2019-03-09T01:28:01.978Z,100311.71
2019-03-09T01:28:33.213Z,100308.70
2019-03-09T01:29:04.420Z,100307.41
2019-03-09T01:29:35.574Z,100299.49
2019-03-09T01:30:14.196Z,100307.00
2019-03-09T01:30:45.384Z,100304.81
2019-03-09T01:31:16.609Z,100304.81
2019-03-09T01:31:47.767Z,100307.08
2019-03-09T01:32:19.018Z,100302.77
2019-03-09T01:32:50.186Z,100302.77
2019-03-09T01:33:21.418Z,100303.66
2019-03-09T01:33:52.605Z,100302.36
2019-03-09T01:34:23.833Z,100282.08
2019-03-09T01:34:55.067Z,100284.23
2019-03-09T01:35:26.303Z,100284.23
2019-03-09T01:35:57.525Z,100286.98
2019-03-09T01:36:28.755Z,100292.82
2019-03-09T01:36:59.997Z,100278.19
2019-03-09T01:37:31.271Z,100278.19
2019-03-09T01:38:02.589Z,100295.38
2019-03-09T01:38:33.827Z,100300.09
2019-03-09T01:39:05.327Z,100300.09
2019-03-09T01:39:37.105Z,100292.66
2019-03-09T01:40:11.413Z,100292.66
2019-03-09T01:40:42.569Z,100275.31
2019-03-09T01:41:13.780Z,100277.02
2019-03-09T01:41:44.976Z,100292.48
2019-03-09T01:42:16.196Z,100287.20
2019-03-09T01:42:48.355Z,100292.40
2019-03-09T01:43:19.545Z,100292.40
2019-03-09T01:43:50.697Z,100281.41
2019-03-09T01:44:21.901Z,100289.39
2019-03-09T01:44:53.081Z,100268.63
2019-03-09T01:45:24.323Z,100268.63
2019-03-09T01:45:55.454Z,100276.09
2019-03-09T01:46:26.659Z,100290.13
2019-03-09T01:46:57.818Z,100287.09
2019-03-09T01:47:29.023Z,100287.09
2019-03-09T01:48:00.163Z,100263.61
2019-03-09T01:48:31.364Z,100287.90
2019-03-09T01:49:02.584Z,100270.70
2019-03-09T01:49:33.888Z,100284.00
2019-03-09T01:50:07.460Z,100272.41
2019-03-09T01:50:38.738Z,100272.41
2019-03-09T01:51:10.037Z,100284.41
2019-03-09T01:51:41.256Z,100284.41
2019-03-09T01:52:12.504Z,100290.91
2019-03-09T01:52:43.742Z,100283.52
2019-03-09T01:53:14.966Z,100283.88
2019-03-09T01:53:46.244Z,100282.99
2019-03-09T01:54:17.458Z,100278.61
2019-03-09T01:54:48.606Z,100279.50
2019-03-09T01:55:19.815Z,100279.50
2019-03-09T01:55:51.900Z,100259.16
2019-03-09T01:56:23.087Z,100257.41
2019-03-09T01:56:54.273Z,100257.41
2019-03-09T01:57:25.455Z,100271.59
2019-03-09T01:57:56.638Z,100269.81
2019-03-09T01:58:27.867Z,100274.59
2019-03-09T01:58:59.077Z,100266.33
2019-03-09T01:59:30.253Z,100266.33
2019-03-09T02:00:04.431Z,100263.73
2019-03-09T02:00:37.501Z,100261.94
2019-03-09T02:01:08.681Z,100263.65
2019-03-09T02:01:39.869Z,100268.44
2019-03-09T02:02:11.064Z,100261.90
2019-03-09T02:02:42.243Z,100260.16
2019-03-09T02:03:13.421Z,100259.75
2019-03-09T02:03:44.593Z,100261.90
2019-03-09T02:04:15.763Z,100260.16
2019-03-09T02:04:47.901Z,100262.76
2019-03-09T02:05:19.113Z,100264.95
2019-03-09T02:05:50.268Z,100242.48
2019-03-09T02:06:21.469Z,100264.54
2019-03-09T02:06:52.636Z,100260.60
2019-03-09T02:07:23.908Z,100260.64
2019-03-09T02:07:55.106Z,100260.64
2019-03-09T02:08:26.323Z,100260.16
2019-03-09T02:08:57.485Z,100257.56
2019-03-09T02:09:28.707Z,100261.01
2019-03-09T02:09:59.866Z,100262.72
2019-03-09T02:10:31.174Z,100255.33
2019-03-09T02:11:02.329Z,100257.11
2019-03-09T02:11:33.541Z,100246.58
2019-03-09T02:12:04.926Z,100258.01
2019-03-09T02:12:36.135Z,100254.03
2019-03-09T02:13:07.290Z,100255.81
2019-03-09T02:13:38.502Z,100255.81
2019-03-09T02:14:09.661Z,100252.33
2019-03-09T02:14:40.851Z,100250.55
2019-03-09T02:15:14.311Z,100252.25
2019-03-09T02:15:45.516Z,100253.55
2019-03-09T02:16:16.662Z,100245.23
2019-03-09T02:16:47.860Z,100253.14
2019-03-09T02:17:19.028Z,100249.25
2019-03-09T02:17:50.294Z,100253.63
2019-03-09T02:18:21.526Z,100253.63
2019-03-09T02:18:52.734Z,100249.25
2019-03-09T02:19:23.918Z,100249.25
2019-03-09T02:19:55.152Z,100251.03
2019-03-09T02:20:26.412Z,100251.44
2019-03-09T02:20:57.646Z,100251.44
2019-03-09T02:21:28.907Z,100252.73
2019-03-09T02:22:52.890Z,100247.33
2019-03-09T02:23:24.259Z,100249.17
2019-03-09T02:23:55.486Z,100224.19
2019-03-09T02:24:26.727Z,100244.13
2019-03-09T02:24:57.874Z,100248.43
2019-03-09T02:25:29.065Z,100251.52
2019-03-09T02:26:00.208Z,100253.22
2019-03-09T02:26:31.410Z,100243.23
2019-03-09T02:27:02.581Z,100247.13
2019-03-09T02:27:33.804Z,100244.53
2019-03-09T02:28:04.963Z,100244.53
2019-03-09T02:28:36.180Z,100241.53
2019-03-09T02:29:07.381Z,100252.85
2019-03-09T02:29:38.583Z,100251.55
2019-03-09T02:30:17.062Z,100248.95
2019-03-09T02:30:48.271Z,100252.44
2019-03-09T02:31:19.465Z,100249.84
2019-03-09T02:31:50.679Z,100246.47
2019-03-09T02:32:21.835Z,100246.47
2019-03-09T02:32:53.061Z,100247.25
2019-03-09T02:33:24.197Z,100232.36
2019-03-09T02:33:55.437Z,100232.36
2019-03-09T02:34:26.596Z,100237.22
2019-03-09T02:34:57.800Z,100246.66
2019-03-09T02:35:28.977Z,100228.17
2019-03-09T02:36:00.183Z,100229.95
2019-03-09T02:36:31.349Z,100243.36
2019-03-09T02:37:02.552Z,100243.36
2019-03-09T02:37:34.931Z,100241.32
2019-03-09T02:38:10.639Z,100241.32
2019-03-09T02:38:46.699Z,100237.13
2019-03-09T02:39:19.802Z,100237.13
2019-03-09T02:39:55.540Z,100238.50
2019-03-09T02:40:28.050Z,100233.75
2019-03-09T02:40:59.277Z,100232.94
2019-03-09T02:41:31.884Z,100235.61
2019-03-09T02:42:03.115Z,100208.77
2019-03-09T02:42:34.350Z,100223.55
2019-03-09T02:43:05.598Z,100211.14
2019-03-09T02:43:36.810Z,100225.33
2019-03-09T02:44:08.105Z,100225.33
2019-03-09T02:44:39.368Z,100215.41
2019-03-09T02:45:17.924Z,100220.20
2019-03-09T02:45:50.124Z,100220.20
2019-03-09T02:46:21.329Z,100209.73
2019-03-09T02:46:52.503Z,100195.73
2019-03-09T02:47:23.710Z,100195.73
2019-03-09T02:47:54.872Z,100209.09
2019-03-09T02:48:26.058Z,100202.05
2019-03-09T02:48:57.205Z,100193.66
2019-03-09T02:49:28.400Z,100193.66
2019-03-09T02:49:59.654Z,100202.78
2019-03-09T02:50:30.899Z,100205.83
2019-03-09T02:51:02.348Z,100205.83
2019-03-09T02:51:33.534Z,100202.07
2019-03-09T02:52:04.926Z,100202.11
2019-03-09T02:52:36.104Z,100205.59
2019-03-09T02:53:07.302Z,100203.07
2019-03-09T02:53:38.457Z,100203.07
2019-03-09T02:54:09.625Z,100205.74
2019-03-09T02:54:40.827Z,100206.59
2019-03-09T02:55:12.613Z,100206.59
2019-03-09T02:55:43.757Z,100204.19
2019-03-09T02:56:14.988Z,100193.72
2019-03-09T02:56:46.222Z,100211.88
2019-03-09T02:57:17.455Z,100208.45
2019-03-09T02:57:48.687Z,100193.38
2019-03-09T02:58:19.925Z,100193.38
2019-03-09T02:58:51.160Z,100211.53
2019-03-09T02:59:22.433Z,100202.44
2019-03-09T02:59:53.684Z,100205.92
2019-03-09T03:00:26.805Z,100205.48
2019-03-09T03:00:59.879Z,100189.08
2019-03-09T03:01:35.871Z,100189.08
2019-03-09T03:02:11.667Z,100198.98
2019-03-09T03:02:44.788Z,100185.28
2019-03-09T03:03:16.010Z,100198.71
2019-03-09T03:03:47.217Z,100198.71
2019-03-09T03:04:18.385Z,100200.05
2019-03-09T03:04:49.594Z,100197.92
2019-03-09T03:05:20.818Z,100197.92
2019-03-09T03:05:52.126Z,100191.84
2019-03-09T03:06:23.352Z,100193.20
2019-03-09T03:06:54.588Z,100194.92
2019-03-09T03:07:25.830Z,100191.91
2019-03-09T03:07:57.050Z,100188.89
2019-03-09T03:08:28.307Z,100188.45
2019-03-09T03:08:59.562Z,100184.21
2019-03-09T03:09:32.069Z,100184.21
2019-03-09T03:10:06.261Z,100184.21
2019-03-09T03:10:37.516Z,100177.30
2019-03-09T03:11:08.677Z,100177.30
2019-03-09T03:11:39.874Z,100174.70
2019-03-09T03:12:11.054Z,100171.69
2019-03-09T03:12:42.349Z,100159.23
2019-03-09T03:13:13.495Z,100159.23
2019-03-09T03:13:44.701Z,100172.17
2019-03-09T03:14:15.860Z,100172.17
2019-03-09T03:14:47.144Z,100175.63
2019-03-09T03:15:34.971Z,100180.38
2019-03-09T03:16:06.220Z,100180.38
2019-03-09T03:16:38.548Z,100175.59
2019-03-09T03:17:09.776Z,100176.89
2019-03-09T03:17:41.009Z,100179.02
2019-03-09T03:18:13.289Z,100175.93
2019-03-09T03:18:44.585Z,100169.80
2019-03-09T03:19:15.824Z,100174.59
2019-03-09T03:19:47.009Z,100174.59
2019-03-09T03:20:18.233Z,100177.20
2019-03-09T03:20:49.406Z,100178.05
2019-03-09T03:21:20.591Z,100172.85
2019-03-09T03:21:51.855Z,100178.91
2019-03-09T03:22:23.117Z,100179.31
2019-03-09T03:22:54.312Z,100171.52
2019-03-09T03:23:25.522Z,100171.52
2019-03-09T03:23:56.783Z,100177.61
2019-03-09T03:24:27.964Z,100164.33
2019-03-09T03:24:59.142Z,100164.47
2019-03-09T03:25:30.310Z,100167.24
2019-03-09T03:26:01.834Z,100167.24
2019-03-09T03:26:33.080Z,100173.30
2019-03-09T03:27:04.270Z,100166.35
2019-03-09T03:27:35.532Z,100150.06
2019-03-09T03:28:06.707Z,100167.24
2019-03-09T03:28:37.883Z,100164.64
2019-03-09T03:29:09.064Z,100162.89
2019-03-09T03:29:40.249Z,100162.89
2019-03-09T03:30:11.481Z,100162.83
2019-03-09T03:30:42.762Z,100162.83
2019-03-09T03:31:13.936Z,100163.72
2019-03-09T03:31:45.126Z,100161.01
2019-03-09T03:32:16.402Z,100158.82
2019-03-09T03:32:47.591Z,100156.16
2019-03-09T03:33:18.781Z,100153.14
2019-03-09T03:33:49.973Z,100153.14
2019-03-09T03:34:21.287Z,100158.23
2019-03-09T03:34:52.543Z,100158.23
2019-03-09T03:35:23.729Z,100160.35
2019-03-09T03:35:54.954Z,100160.35
2019-03-09T03:36:27.127Z,100162.06
2019-03-09T03:36:58.327Z,100162.06
2019-03-09T03:37:29.460Z,100155.56
2019-03-09T03:38:00.686Z,100154.20
2019-03-09T03:38:31.838Z,100154.20
2019-03-09T03:39:04.958Z,100156.34
2019-03-09T03:39:36.499Z,100152.79
2019-03-09T03:40:08.009Z,100152.79
2019-03-09T03:40:39.251Z,100149.37
2019-03-09T03:41:10.478Z,100148.48
2019-03-09T03:41:41.628Z,100148.48
2019-03-09T03:42:12.878Z,100131.64
2019-03-09T03:42:44.044Z,100131.64
2019-03-09T03:43:16.302Z,100150.19
2019-03-09T03:43:47.628Z,100147.59
2019-03-09T03:44:18.819Z,100148.38
2019-03-09T03:44:49.974Z,100146.19
2019-03-09T03:45:21.190Z,100150.42
2019-03-09T03:45:52.392Z,100150.42
2019-03-09T03:46:23.620Z,100154.73
2019-03-09T03:46:54.796Z,100148.64
2019-03-09T03:47:25.998Z,100141.70
2019-03-09T03:47:57.157Z,100141.70
2019-03-09T03:48:28.359Z,100144.30
2019-03-09T03:48:59.619Z,100148.20
2019-03-09T03:49:30.817Z,100147.78
2019-03-09T03:50:03.607Z,100143.41
2019-03-09T03:50:34.980Z,100145.52
2019-03-09T03:51:06.233Z,100140.73
2019-03-09T03:51:37.425Z,100137.66
2019-03-09T03:52:08.616Z,100136.73
2019-03-09T03:52:39.897Z,100136.73
2019-03-09T03:53:11.083Z,100118.56
2019-03-09T03:53:42.304Z,100118.56
2019-03-09T03:54:13.568Z,100127.12
2019-03-09T03:54:44.761Z,100135.33
2019-03-09T03:55:15.951Z,100135.33
2019-03-09T03:55:47.123Z,100127.46
2019-03-09T03:56:18.301Z,100118.56
2019-03-09T03:56:49.589Z,100123.48
2019-03-09T03:57:20.826Z,100123.48
2019-03-09T03:57:52.061Z,100120.00
2019-03-09T03:58:23.231Z,100123.08
2019-03-09T03:58:54.408Z,100125.20
2019-03-09T03:59:25.602Z,100120.86
2019-03-09T03:59:56.786Z,100100.60
2019-03-09T04:00:27.997Z,100113.95
2019-03-09T04:00:59.166Z,100113.95
2019-03-09T04:01:30.348Z,100117.41
2019-03-09T04:02:01.536Z,100101.90
2019-03-09T04:02:32.713Z,100113.88
2019-03-09T04:03:03.920Z,100108.68
2019-03-09T04:03:35.350Z,100108.68
2019-03-09T04:04:06.683Z,100109.09
2019-03-09T04:04:37.870Z,100108.68
2019-03-09T04:05:09.056Z,100112.17
2019-03-09T04:05:40.331Z,100112.17
2019-03-09T04:06:11.514Z,100112.17
2019-03-09T04:06:42.698Z,100109.09
2019-03-09T04:07:13.881Z,100110.31
2019-03-09T04:07:45.147Z,100109.98
2019-03-09T04:08:16.368Z,100088.42
2019-03-09T04:08:47.538Z,100088.42
2019-03-09T04:09:18.738Z,100106.16
2019-03-09T04:09:49.931Z,100106.16
2019-03-09T04:10:21.200Z,100106.56
2019-03-09T04:10:52.380Z,100087.13
2019-03-09T04:11:23.591Z,100086.31
2019-03-09T04:11:55.752Z,100086.31
2019-03-09T04:12:26.958Z,100080.22
2019-03-09T04:12:58.126Z,100100.10
2019-03-09T04:13:29.341Z,100098.77
2019-03-09T04:14:00.493Z,100100.47
2019-03-09T04:14:32.008Z,100097.40
2019-03-09T04:15:04.991Z,100097.40
2019-03-09T04:15:36.180Z,100102.59
2019-03-09T04:16:07.354Z,100098.22
2019-03-09T04:16:38.552Z,100098.22
2019-03-09T04:17:09.719Z,100098.18
2019-03-09T04:17:40.927Z,100095.84
2019-03-09T04:18:12.165Z,100099.41
2019-03-09T04:18:43.367Z,100092.33
2019-03-09T04:19:14.546Z,100099.41
2019-03-09T04:19:45.742Z,100094.52
2019-03-09T04:20:16.901Z,100095.52
2019-03-09T04:20:49.172Z,100095.84
2019-03-09T04:21:20.337Z,100095.84
2019-03-09T04:21:51.540Z,100087.47
2019-03-09T04:22:22.707Z,100101.42
2019-03-09T04:22:53.902Z,100090.20
2019-03-09T04:23:25.115Z,100089.36
2019-03-09T04:23:57.369Z,100091.95
2019-03-09T04:24:28.607Z,100091.95
2019-03-09T04:24:59.894Z,100086.34
2019-03-09T04:25:31.182Z,100086.34
2019-03-09T04:26:02.779Z,100088.05
2019-03-09T04:26:33.998Z,100088.05
2019-03-09T04:27:05.162Z,100084.64
2019-03-09T04:27:36.416Z,100084.64
2019-03-09T04:28:07.581Z,100077.25
2019-03-09T04:28:38.796Z,100083.75
2019-03-09T04:29:09.999Z,100057.72
2019-03-09T04:29:41.189Z,100078.03
2019-03-09T04:30:12.474Z,100075.92
2019-03-09T04:30:43.663Z,100078.52
2019-03-09T04:31:14.812Z,100078.96
2019-03-09T04:31:46.029Z,100072.53
2019-03-09T04:32:17.302Z,100065.28
2019-03-09T04:32:48.553Z,100065.28
2019-03-09T04:33:19.717Z,100065.86
2019-03-09T04:33:50.917Z,100075.61
2019-03-09T04:34:22.062Z,100075.61
2019-03-09T04:34:53.265Z,100080.81
2019-03-09T04:35:24.422Z,100069.45
2019-03-09T04:35:55.623Z,100072.13
2019-03-09T04:36:26.793Z,100072.13
2019-03-09T04:36:59.518Z,100076.50
2019-03-09T04:37:30.678Z,100076.50
2019-03-09T04:38:01.912Z,100069.12
2019-03-09T04:38:33.073Z,100069.19
2019-03-09T04:39:04.769Z,100064.81
2019-03-09T04:39:36.358Z,100069.19
2019-03-09T04:40:10.307Z,100069.19
2019-03-09T04:40:41.465Z,100072.64
2019-03-09T04:41:12.677Z,100065.73
2019-03-09T04:41:47.729Z,100065.73
2019-03-09T04:42:18.979Z,100065.80
2019-03-09T04:42:50.223Z,100065.80
2019-03-09T04:43:21.455Z,100064.50
2019-03-09T04:43:52.683Z,100061.97
2019-03-09T04:44:23.924Z,100054.52
2019-03-09T04:44:55.196Z,100057.49
2019-03-09T04:45:26.460Z,100057.49
2019-03-09T04:45:57.695Z,100059.23
2019-03-09T04:46:28.963Z,100039.55
2019-03-09T04:47:00.189Z,100047.95
2019-03-09T04:47:31.357Z,100047.95
2019-03-09T04:48:02.591Z,100051.85
2019-03-09T04:48:33.745Z,100033.77
2019-03-09T04:49:04.939Z,100033.77
2019-03-09T04:49:36.109Z,100046.21
2019-03-09T04:50:10.018Z,100046.21
2019-03-09T04:50:41.162Z,100054.52
2019-03-09T04:51:12.418Z,100043.23
2019-03-09T04:51:43.574Z,100043.23
2019-03-09T04:52:14.804Z,100051.99
2019-03-09T04:52:46.061Z,100043.78
2019-03-09T04:53:17.346Z,100042.00
2019-03-09T04:53:48.516Z,100042.00
2019-03-09T04:54:19.718Z,100049.42
2019-03-09T04:54:50.888Z,100046.89
2019-03-09T04:55:22.110Z,100031.85
2019-03-09T04:55:53.269Z,100043.89
2019-03-09T04:56:25.458Z,100043.89
2019-03-09T04:56:56.635Z,100046.97
2019-03-09T04:57:27.924Z,100037.49
2019-03-09T04:57:59.164Z,100037.49
2019-03-09T04:58:30.410Z,100041.45
2019-03-09T04:59:01.950Z,100032.77
2019-03-09T04:59:34.181Z,100032.77
2019-03-09T05:00:10.519Z,100029.80
2019-03-09T05:00:41.741Z,100033.25
2019-03-09T05:01:12.996Z,100031.98
2019-03-09T05:01:44.230Z,100031.98
2019-03-09T05:02:15.419Z,100022.38
2019-03-09T05:02:46.596Z,100008.26
2019-03-09T05:03:18.083Z,100027.67
2019-03-09T05:04:18.798Z,100025.97
2019-03-09T05:04:50.413Z,100029.05
2019-03-09T05:05:21.561Z,100025.56
2019-03-09T05:05:52.775Z,100022.95
2019-03-09T05:06:23.941Z,100021.66
2019-03-09T05:06:55.185Z,100019.53
2019-03-09T05:07:28.269Z,100019.53
2019-03-09T05:08:04.997Z,100021.28
2019-03-09T05:08:41.943Z,100022.64
2019-03-09T05:09:44.161Z,100018.27
2019-03-09T05:10:26.832Z,100013.55
2019-03-09T05:11:03.079Z,99988.02
2019-03-09T05:11:34.319Z,100013.62
2019-03-09T05:12:05.531Z,100012.31
2019-03-09T05:12:36.698Z,100009.81
2019-03-09T05:13:16.093Z,100009.81
2019-03-09T05:13:47.549Z,100006.80
2019-03-09T05:14:18.761Z,100010.30
2019-03-09T05:14:49.933Z,100006.87
2019-03-09T05:15:21.144Z,100007.31
2019-03-09T05:15:52.301Z,100007.31
2019-03-09T05:16:23.546Z,100003.89
2019-03-09T05:16:54.694Z,99999.99
2019-03-09T05:17:25.899Z,99990.55
2019-03-09T05:17:57.098Z,99990.55
2019-03-09T05:18:28.302Z,99992.30
2019-03-09T05:18:59.516Z,99987.58
2019-03-09T05:19:30.777Z,99987.58
2019-03-09T05:20:02.542Z,99985.45
2019-03-09T05:20:33.748Z,99985.45
2019-03-09T05:21:04.904Z,99981.17
2019-03-09T05:21:36.109Z,99975.56
2019-03-09T05:22:07.312Z,99980.83
2019-03-09T05:22:38.568Z,99979.11
2019-03-09T05:23:09.828Z,99979.14
2019-03-09T05:23:41.044Z,99979.14
2019-03-09T05:24:12.294Z,99978.32
2019-03-09T05:24:43.525Z,99977.02
2019-03-09T05:25:14.768Z,99990.97
2019-03-09T05:25:46.007Z,99993.57
2019-03-09T05:26:17.244Z,99991.89
2019-03-09T05:26:48.477Z,99994.97
2019-03-09T05:27:19.700Z,99988.05
2019-03-09T05:27:50.860Z,99986.76
2019-03-09T05:28:23.096Z,99991.06
2019-03-09T05:28:54.259Z,99989.84
2019-03-09T05:29:25.479Z,99985.93
2019-03-09T05:29:56.641Z,99981.62
2019-03-09T05:30:35.183Z,99983.77
2019-03-09T05:31:06.348Z,99982.95
2019-03-09T05:31:37.559Z,99979.05
2019-03-09T05:32:08.711Z,99971.66
2019-03-09T05:32:39.943Z,99971.66
2019-03-09T05:33:11.083Z,99978.58
2019-03-09T05:33:42.309Z,99973.03
2019-03-09T05:34:13.463Z,99957.17
2019-03-09T05:34:44.677Z,99957.17
2019-03-09T05:35:15.851Z,99975.72
2019-03-09T05:35:47.068Z,99966.62
2019-03-09T05:36:18.227Z,99962.84
2019-03-09T05:36:49.451Z,99962.84
2019-03-09T05:37:20.609Z,99953.02
2019-03-09T05:37:51.841Z,99953.02
2019-03-09T05:38:22.999Z,99961.16
2019-03-09T05:38:54.214Z,99963.35
2019-03-09T05:39:25.381Z,99964.27
2019-03-09T05:39:57.360Z,99961.25
2019-03-09T05:40:28.523Z,99961.25
2019-03-09T05:40:59.724Z,99966.93
2019-03-09T05:41:30.872Z,99963.50
2019-03-09T05:42:02.177Z,99959.67
2019-03-09T05:42:33.332Z,99962.69
2019-03-09T05:43:04.555Z,99955.38
2019-03-09T05:43:35.714Z,99955.38
2019-03-09T05:44:06.927Z,99959.34
2019-03-09T05:44:38.088Z,99965.44
2019-03-09T05:45:09.293Z,99965.88
2019-03-09T05:45:40.446Z,99962.45
2019-03-09T05:46:11.667Z,99959.85
2019-03-09T05:46:42.840Z,99959.85
2019-03-09T05:47:14.128Z,99957.72
2019-03-09T05:47:45.284Z,99941.46
2019-03-09T05:48:16.504Z,99953.83
2019-03-09T05:48:47.668Z,99931.76
2019-03-09T05:49:18.866Z,99957.79
2019-03-09T05:49:50.040Z,99950.02
2019-03-09T05:50:21.265Z,99952.67
2019-03-09T05:50:52.424Z,99933.21
2019-03-09T05:51:23.624Z,99954.45
2019-03-09T05:52:20.363Z,99947.98
2019-03-09T05:53:12.887Z,99948.92
2019-03-09T05:53:44.060Z,99946.00
2019-03-09T05:54:15.241Z,99946.00
2019-03-09T05:54:46.439Z,99946.48
2019-03-09T05:55:17.652Z,99947.80
2019-03-09T05:55:48.839Z,99938.28
2019-03-09T05:56:20.129Z,99923.64
2019-03-09T05:56:52.197Z,99944.44
2019-03-09T05:57:23.404Z,99944.88
2019-03-09T05:57:54.611Z,99944.88
2019-03-09T05:58:25.804Z,99920.30
2019-03-09T05:58:56.961Z,99941.45
2019-03-09T05:59:28.194Z,99905.31
2019-03-09T05:59:59.416Z,99935.83
2019-03-09T06:00:30.831Z,99930.21
2019-03-09T06:01:01.989Z,99935.48
2019-03-09T06:01:33.200Z,99935.06
2019-03-09T06:02:04.367Z,99932.02
2019-03-09T06:02:35.573Z,99932.02
2019-03-09T06:03:06.738Z,99935.16
2019-03-09T06:03:37.940Z,99936.04
2019-03-09T06:04:09.111Z,99932.55
2019-03-09T06:04:40.342Z,99933.88
2019-03-09T06:05:39.926Z,99933.88